sensor_id;sensor_type;location;lat;lon;timestamp;P1;durP1;ratioP1;P2;durP2;ratioP2
63499;SDS011;49654;51.142;14.924;2023-06-04T00:01:22;4.90;;;3.40;;
63499;SDS011;49654;51.142;14.924;2023-06-04T00:03:49;4.30;;;3.13;;
63499;SDS011;49654;51.142;14.924;2023-06-04T00:06:16;4.60;;;3.22;;
63499;SDS011;49654;51.142;14.924;2023-06-04T00:08:42;3.67;;;2.90;;
63499;SDS011;49654;51.142;14.924;2023-06-04T00:11:09;4.47;;;2.90;;
63499;SDS011;49654;51.142;14.924;2023-06-04T00:13:36;4.70;;;3.00;;
63499;SDS011;49654;51.142;14.924;2023-06-04T00:16:05;4.85;;;3.33;;
63499;SDS011;49654;51.142;14.924;2023-06-04T00:18:32;5.22;;;3.58;;
63499;SDS011;49654;51.142;14.924;2023-06-04T00:20:59;5.18;;;3.10;;
63499;SDS011;49654;51.142;14.924;2023-06-04T00:23:25;3.97;;;2.85;;
63499;SDS011;49654;51.142;14.924;2023-06-04T00:25:52;3.85;;;2.88;;
63499;SDS011;49654;51.142;14.924;2023-06-04T00:28:19;3.78;;;3.03;;
63499;SDS011;49654;51.142;14.924;2023-06-04T00:30:47;4.97;;;3.10;;
63499;SDS011;49654;51.142;14.924;2023-06-04T00:33:15;4.53;;;2.97;;
63499;SDS011;49654;51.142;14.924;2023-06-04T00:35:42;5.07;;;3.00;;
63499;SDS011;49654;51.142;14.924;2023-06-04T00:38:09;3.92;;;2.90;;
63499;SDS011;49654;51.142;14.924;2023-06-04T00:40:36;5.75;;;2.90;;
63499;SDS011;49654;51.142;14.924;2023-06-04T00:43:03;4.25;;;3.00;;
63499;SDS011;49654;51.142;14.924;2023-06-04T00:45:31;4.85;;;2.90;;
63499;SDS011;49654;51.142;14.924;2023-06-04T00:47:58;4.97;;;3.17;;
63499;SDS011;49654;51.142;14.924;2023-06-04T00:50:27;3.88;;;2.67;;
63499;SDS011;49654;51.142;14.924;2023-06-04T00:52:54;4.30;;;3.10;;
63499;SDS011;49654;51.142;14.924;2023-06-04T00:55:22;5.68;;;2.97;;
63499;SDS011;49654;51.142;14.924;2023-06-04T00:57:48;5.88;;;2.97;;
63499;SDS011;49654;51.142;14.924;2023-06-04T01:00:15;4.13;;;3.15;;
63499;SDS011;49654;51.142;14.924;2023-06-04T01:02:43;3.65;;;2.75;;
63499;SDS011;49654;51.142;14.924;2023-06-04T01:05:16;4.85;;;2.90;;
63499;SDS011;49654;51.142;14.924;2023-06-04T01:07:49;5.18;;;3.05;;
63499;SDS011;49654;51.142;14.924;2023-06-04T01:10:17;3.92;;;3.08;;
63499;SDS011;49654;51.142;14.924;2023-06-04T01:12:44;4.65;;;3.10;;
63499;SDS011;49654;51.142;14.924;2023-06-04T01:15:11;4.47;;;3.30;;
63499;SDS011;49654;51.142;14.924;2023-06-04T01:17:39;4.20;;;2.90;;
63499;SDS011;49654;51.142;14.924;2023-06-04T01:20:18;4.65;;;3.13;;
63499;SDS011;49654;51.142;14.924;2023-06-04T01:23:04;4.22;;;3.00;;
63499;SDS011;49654;51.142;14.924;2023-06-04T01:25:41;4.15;;;3.05;;
63499;SDS011;49654;51.142;14.924;2023-06-04T01:28:10;4.60;;;3.25;;
63499;SDS011;49654;51.142;14.924;2023-06-04T01:30:38;3.58;;;3.03;;
63499;SDS011;49654;51.142;14.924;2023-06-04T01:33:08;5.43;;;3.28;;
63499;SDS011;49654;51.142;14.924;2023-06-04T01:35:36;4.65;;;3.13;;
63499;SDS011;49654;51.142;14.924;2023-06-04T01:38:05;3.90;;;2.90;;
63499;SDS011;49654;51.142;14.924;2023-06-04T01:40:32;4.95;;;3.42;;
63499;SDS011;49654;51.142;14.924;2023-06-04T01:42:59;5.07;;;3.13;;
63499;SDS011;49654;51.142;14.924;2023-06-04T01:45:26;4.35;;;2.75;;
63499;SDS011;49654;51.142;14.924;2023-06-04T01:47:54;4.63;;;3.28;;
63499;SDS011;49654;51.142;14.924;2023-06-04T01:50:22;4.30;;;3.15;;
63499;SDS011;49654;51.142;14.924;2023-06-04T01:52:49;4.93;;;3.00;;
63499;SDS011;49654;51.142;14.924;2023-06-04T01:55:17;5.18;;;3.25;;
63499;SDS011;49654;51.142;14.924;2023-06-04T01:57:45;4.32;;;2.90;;
63499;SDS011;49654;51.142;14.924;2023-06-04T02:00:13;4.00;;;2.83;;
63499;SDS011;49654;51.142;14.924;2023-06-04T02:02:41;5.28;;;3.25;;
63499;SDS011;49654;51.142;14.924;2023-06-04T02:05:09;4.25;;;3.40;;
63499;SDS011;49654;51.142;14.924;2023-06-04T02:07:36;4.30;;;3.05;;
63499;SDS011;49654;51.142;14.924;2023-06-04T02:10:04;5.47;;;3.20;;
63499;SDS011;49654;51.142;14.924;2023-06-04T02:12:35;5.38;;;3.25;;
63499;SDS011;49654;51.142;14.924;2023-06-04T02:15:03;5.50;;;3.53;;
63499;SDS011;49654;51.142;14.924;2023-06-04T02:17:31;4.22;;;3.13;;
63499;SDS011;49654;51.142;14.924;2023-06-04T02:20:03;5.13;;;3.17;;
63499;SDS011;49654;51.142;14.924;2023-06-04T02:22:35;4.57;;;3.25;;
63499;SDS011;49654;51.142;14.924;2023-06-04T02:25:02;4.80;;;2.92;;
63499;SDS011;49654;51.142;14.924;2023-06-04T02:27:29;4.65;;;3.30;;
63499;SDS011;49654;51.142;14.924;2023-06-04T02:29:57;4.70;;;3.20;;
63499;SDS011;49654;51.142;14.924;2023-06-04T02:32:24;4.72;;;3.20;;
63499;SDS011;49654;51.142;14.924;2023-06-04T02:34:51;3.97;;;3.00;;
63499;SDS011;49654;51.142;14.924;2023-06-04T02:37:18;9.32;;;3.88;;
63499;SDS011;49654;51.142;14.924;2023-06-04T02:39:45;4.10;;;3.00;;
63499;SDS011;49654;51.142;14.924;2023-06-04T02:42:11;4.88;;;3.17;;
63499;SDS011;49654;51.142;14.924;2023-06-04T02:44:38;4.22;;;3.15;;
63499;SDS011;49654;51.142;14.924;2023-06-04T02:47:07;4.25;;;3.10;;
63499;SDS011;49654;51.142;14.924;2023-06-04T02:49:34;4.70;;;3.10;;
63499;SDS011;49654;51.142;14.924;2023-06-04T02:52:01;4.05;;;3.42;;
63499;SDS011;49654;51.142;14.924;2023-06-04T02:54:28;4.50;;;3.15;;
63499;SDS011;49654;51.142;14.924;2023-06-04T02:56:55;4.28;;;3.10;;
63499;SDS011;49654;51.142;14.924;2023-06-04T02:59:22;5.10;;;3.57;;
63499;SDS011;49654;51.142;14.924;2023-06-04T03:01:49;4.35;;;3.10;;
63499;SDS011;49654;51.142;14.924;2023-06-04T03:04:17;5.23;;;3.47;;
63499;SDS011;49654;51.142;14.924;2023-06-04T03:06:46;5.55;;;3.33;;
63499;SDS011;49654;51.142;14.924;2023-06-04T03:09:13;6.35;;;3.47;;
63499;SDS011;49654;51.142;14.924;2023-06-04T03:11:40;4.55;;;3.45;;
63499;SDS011;49654;51.142;14.924;2023-06-04T03:14:07;5.10;;;3.58;;
63499;SDS011;49654;51.142;14.924;2023-06-04T03:16:34;4.53;;;3.22;;
63499;SDS011;49654;51.142;14.924;2023-06-04T03:19:00;5.75;;;3.28;;
63499;SDS011;49654;51.142;14.924;2023-06-04T03:21:30;4.22;;;3.17;;
63499;SDS011;49654;51.142;14.924;2023-06-04T03:23:56;6.15;;;3.30;;
63499;SDS011;49654;51.142;14.924;2023-06-04T03:26:23;5.35;;;3.80;;
63499;SDS011;49654;51.142;14.924;2023-06-04T03:28:52;5.20;;;3.60;;
63499;SDS011;49654;51.142;14.924;2023-06-04T03:31:19;5.47;;;3.22;;
63499;SDS011;49654;51.142;14.924;2023-06-04T03:33:46;4.38;;;3.50;;
63499;SDS011;49654;51.142;14.924;2023-06-04T03:36:13;4.35;;;3.15;;
63499;SDS011;49654;51.142;14.924;2023-06-04T03:38:44;4.63;;;3.53;;
63499;SDS011;49654;51.142;14.924;2023-06-04T03:41:11;5.72;;;3.22;;
63499;SDS011;49654;51.142;14.924;2023-06-04T03:43:39;4.35;;;3.15;;
63499;SDS011;49654;51.142;14.924;2023-06-04T03:46:05;4.22;;;3.20;;
63499;SDS011;49654;51.142;14.924;2023-06-04T03:48:32;5.10;;;3.20;;
63499;SDS011;49654;51.142;14.924;2023-06-04T03:50:59;7.13;;;3.70;;
63499;SDS011;49654;51.142;14.924;2023-06-04T03:53:26;4.75;;;3.60;;
63499;SDS011;49654;51.142;14.924;2023-06-04T03:55:54;4.22;;;3.03;;
63499;SDS011;49654;51.142;14.924;2023-06-04T03:58:21;4.32;;;3.08;;
63499;SDS011;49654;51.142;14.924;2023-06-04T04:00:49;5.57;;;3.35;;
63499;SDS011;49654;51.142;14.924;2023-06-04T04:03:17;5.82;;;4.25;;
63499;SDS011;49654;51.142;14.924;2023-06-04T04:05:44;4.40;;;3.20;;
63499;SDS011;49654;51.142;14.924;2023-06-04T04:08:11;4.55;;;3.50;;
63499;SDS011;49654;51.142;14.924;2023-06-04T04:10:41;5.32;;;3.33;;
63499;SDS011;49654;51.142;14.924;2023-06-04T04:13:09;4.00;;;3.30;;
63499;SDS011;49654;51.142;14.924;2023-06-04T04:15:36;5.05;;;3.60;;
63499;SDS011;49654;51.142;14.924;2023-06-04T04:18:03;4.50;;;3.38;;
63499;SDS011;49654;51.142;14.924;2023-06-04T04:20:33;4.75;;;3.30;;
63499;SDS011;49654;51.142;14.924;2023-06-04T04:23:01;4.55;;;3.60;;
63499;SDS011;49654;51.142;14.924;2023-06-04T04:25:27;6.68;;;3.50;;
63499;SDS011;49654;51.142;14.924;2023-06-04T04:27:55;5.47;;;3.50;;
63499;SDS011;49654;51.142;14.924;2023-06-04T04:30:27;4.97;;;3.70;;
63499;SDS011;49654;51.142;14.924;2023-06-04T04:32:54;3.85;;;3.20;;
63499;SDS011;49654;51.142;14.924;2023-06-04T04:35:21;5.90;;;3.50;;
63499;SDS011;49654;51.142;14.924;2023-06-04T04:37:49;5.10;;;3.70;;
63499;SDS011;49654;51.142;14.924;2023-06-04T04:40:16;5.25;;;3.80;;
63499;SDS011;49654;51.142;14.924;2023-06-04T04:42:43;7.00;;;3.92;;
63499;SDS011;49654;51.142;14.924;2023-06-04T04:45:10;8.50;;;3.92;;
63499;SDS011;49654;51.142;14.924;2023-06-04T04:47:38;5.75;;;4.13;;
63499;SDS011;49654;51.142;14.924;2023-06-04T04:50:05;8.10;;;4.07;;
63499;SDS011;49654;51.142;14.924;2023-06-04T04:52:33;4.78;;;3.92;;
63499;SDS011;49654;51.142;14.924;2023-06-04T04:55:00;5.60;;;4.38;;
63499;SDS011;49654;51.142;14.924;2023-06-04T04:57:27;4.80;;;3.83;;
63499;SDS011;49654;51.142;14.924;2023-06-04T04:59:54;4.75;;;3.60;;
63499;SDS011;49654;51.142;14.924;2023-06-04T05:02:21;7.18;;;4.25;;
63499;SDS011;49654;51.142;14.924;2023-06-04T05:04:49;6.03;;;4.50;;
63499;SDS011;49654;51.142;14.924;2023-06-04T05:07:16;5.78;;;4.15;;
63499;SDS011;49654;51.142;14.924;2023-06-04T05:09:43;5.35;;;4.07;;
63499;SDS011;49654;51.142;14.924;2023-06-04T05:12:10;6.45;;;4.45;;
63499;SDS011;49654;51.142;14.924;2023-06-04T05:14:37;6.32;;;3.88;;
63499;SDS011;49654;51.142;14.924;2023-06-04T05:17:05;6.28;;;4.30;;
63499;SDS011;49654;51.142;14.924;2023-06-04T05:19:32;6.25;;;4.30;;
63499;SDS011;49654;51.142;14.924;2023-06-04T05:22:00;5.65;;;3.90;;
63499;SDS011;49654;51.142;14.924;2023-06-04T05:24:27;7.10;;;4.57;;
63499;SDS011;49654;51.142;14.924;2023-06-04T05:26:54;6.38;;;4.47;;
63499;SDS011;49654;51.142;14.924;2023-06-04T05:29:21;6.63;;;4.53;;
63499;SDS011;49654;51.142;14.924;2023-06-04T05:31:48;6.30;;;4.07;;
63499;SDS011;49654;51.142;14.924;2023-06-04T05:34:16;8.88;;;4.30;;
63499;SDS011;49654;51.142;14.924;2023-06-04T05:36:43;7.45;;;4.20;;
63499;SDS011;49654;51.142;14.924;2023-06-04T05:39:12;7.18;;;4.65;;
63499;SDS011;49654;51.142;14.924;2023-06-04T05:41:39;6.45;;;5.32;;
63499;SDS011;49654;51.142;14.924;2023-06-04T05:44:07;8.80;;;5.13;;
63499;SDS011;49654;51.142;14.924;2023-06-04T05:46:34;5.93;;;5.00;;
63499;SDS011;49654;51.142;14.924;2023-06-04T05:49:02;7.38;;;4.45;;
63499;SDS011;49654;51.142;14.924;2023-06-04T05:51:29;6.15;;;4.05;;
63499;SDS011;49654;51.142;14.924;2023-06-04T05:53:56;6.25;;;4.10;;
63499;SDS011;49654;51.142;14.924;2023-06-04T05:56:25;5.63;;;3.97;;
63499;SDS011;49654;51.142;14.924;2023-06-04T05:58:52;6.53;;;3.88;;
63499;SDS011;49654;51.142;14.924;2023-06-04T06:01:19;5.35;;;3.78;;
63499;SDS011;49654;51.142;14.924;2023-06-04T06:03:47;5.43;;;3.50;;
63499;SDS011;49654;51.142;14.924;2023-06-04T06:06:14;5.43;;;4.00;;
63499;SDS011;49654;51.142;14.924;2023-06-04T06:08:41;5.63;;;4.05;;
63499;SDS011;49654;51.142;14.924;2023-06-04T06:11:07;5.57;;;3.85;;
63499;SDS011;49654;51.142;14.924;2023-06-04T06:13:36;5.13;;;3.95;;
63499;SDS011;49654;51.142;14.924;2023-06-04T06:16:03;4.97;;;3.50;;
63499;SDS011;49654;51.142;14.924;2023-06-04T06:18:30;5.68;;;3.47;;
63499;SDS011;49654;51.142;14.924;2023-06-04T06:20:57;5.75;;;3.40;;
63499;SDS011;49654;51.142;14.924;2023-06-04T06:23:23;4.70;;;3.58;;
63499;SDS011;49654;51.142;14.924;2023-06-04T06:25:50;4.53;;;3.28;;
63499;SDS011;49654;51.142;14.924;2023-06-04T06:28:18;8.52;;;3.60;;
63499;SDS011;49654;51.142;14.924;2023-06-04T06:30:46;3.72;;;2.83;;
63499;SDS011;49654;51.142;14.924;2023-06-04T06:33:13;4.00;;;3.05;;
63499;SDS011;49654;51.142;14.924;2023-06-04T06:35:41;4.75;;;3.05;;
63499;SDS011;49654;51.142;14.924;2023-06-04T06:38:12;4.38;;;3.42;;
63499;SDS011;49654;51.142;14.924;2023-06-04T06:40:39;4.43;;;3.05;;
63499;SDS011;49654;51.142;14.924;2023-06-04T06:43:07;7.18;;;3.28;;
63499;SDS011;49654;51.142;14.924;2023-06-04T06:45:35;4.95;;;2.92;;
63499;SDS011;49654;51.142;14.924;2023-06-04T06:48:03;3.75;;;2.85;;
63499;SDS011;49654;51.142;14.924;2023-06-04T06:50:31;8.07;;;2.75;;
63499;SDS011;49654;51.142;14.924;2023-06-04T06:52:58;3.13;;;2.13;;
63499;SDS011;49654;51.142;14.924;2023-06-04T06:55:25;3.22;;;2.25;;
63499;SDS011;49654;51.142;14.924;2023-06-04T06:57:52;3.80;;;2.40;;
63499;SDS011;49654;51.142;14.924;2023-06-04T07:00:19;8.23;;;2.50;;
63499;SDS011;49654;51.142;14.924;2023-06-04T07:02:46;3.17;;;2.05;;
63499;SDS011;49654;51.142;14.924;2023-06-04T07:05:14;3.80;;;2.55;;
63499;SDS011;49654;51.142;14.924;2023-06-04T07:07:42;3.88;;;2.40;;
63499;SDS011;49654;51.142;14.924;2023-06-04T07:10:09;3.63;;;2.63;;
63499;SDS011;49654;51.142;14.924;2023-06-04T07:12:36;3.33;;;2.45;;
63499;SDS011;49654;51.142;14.924;2023-06-04T07:15:04;6.35;;;3.22;;
63499;SDS011;49654;51.142;14.924;2023-06-04T07:17:32;6.18;;;2.78;;
63499;SDS011;49654;51.142;14.924;2023-06-04T07:19:59;4.68;;;2.72;;
63499;SDS011;49654;51.142;14.924;2023-06-04T07:22:27;5.80;;;2.70;;
63499;SDS011;49654;51.142;14.924;2023-06-04T07:24:54;3.92;;;2.60;;
63499;SDS011;49654;51.142;14.924;2023-06-04T07:27:21;6.40;;;2.90;;
63499;SDS011;49654;51.142;14.924;2023-06-04T07:29:48;4.65;;;2.92;;
63499;SDS011;49654;51.142;14.924;2023-06-04T07:32:15;4.78;;;2.83;;
63499;SDS011;49654;51.142;14.924;2023-06-04T07:34:42;4.63;;;2.67;;
63499;SDS011;49654;51.142;14.924;2023-06-04T07:37:08;5.47;;;3.00;;
63499;SDS011;49654;51.142;14.924;2023-06-04T07:39:38;4.20;;;2.83;;
63499;SDS011;49654;51.142;14.924;2023-06-04T07:42:05;5.32;;;2.40;;
63499;SDS011;49654;51.142;14.924;2023-06-04T07:44:32;5.55;;;2.85;;
63499;SDS011;49654;51.142;14.924;2023-06-04T07:46:59;4.45;;;2.53;;
63499;SDS011;49654;51.142;14.924;2023-06-04T07:49:27;5.72;;;2.88;;
63499;SDS011;49654;51.142;14.924;2023-06-04T07:51:54;4.57;;;2.97;;
63499;SDS011;49654;51.142;14.924;2023-06-04T07:54:20;5.03;;;3.00;;
63499;SDS011;49654;51.142;14.924;2023-06-04T07:56:49;6.00;;;2.88;;
63499;SDS011;49654;51.142;14.924;2023-06-04T07:59:21;4.68;;;2.40;;
63499;SDS011;49654;51.142;14.924;2023-06-04T08:01:49;5.07;;;2.97;;
63499;SDS011;49654;51.142;14.924;2023-06-04T08:04:16;3.42;;;2.30;;
63499;SDS011;49654;51.142;14.924;2023-06-04T08:06:43;6.30;;;2.55;;
63499;SDS011;49654;51.142;14.924;2023-06-04T08:09:10;4.35;;;2.78;;
63499;SDS011;49654;51.142;14.924;2023-06-04T08:11:39;3.70;;;2.70;;
63499;SDS011;49654;51.142;14.924;2023-06-04T08:14:09;3.42;;;2.40;;
63499;SDS011;49654;51.142;14.924;2023-06-04T08:16:36;4.50;;;2.50;;
63499;SDS011;49654;51.142;14.924;2023-06-04T08:19:03;4.13;;;2.35;;
63499;SDS011;49654;51.142;14.924;2023-06-04T08:21:32;6.97;;;2.50;;
63499;SDS011;49654;51.142;14.924;2023-06-04T08:23:59;4.95;;;2.00;;
63499;SDS011;49654;51.142;14.924;2023-06-04T08:26:27;6.50;;;2.40;;
63499;SDS011;49654;51.142;14.924;2023-06-04T08:28:54;3.55;;;2.20;;
63499;SDS011;49654;51.142;14.924;2023-06-04T08:31:23;3.72;;;2.22;;
63499;SDS011;49654;51.142;14.924;2023-06-04T08:33:49;5.03;;;2.20;;
63499;SDS011;49654;51.142;14.924;2023-06-04T08:36:16;5.05;;;2.40;;
63499;SDS011;49654;51.142;14.924;2023-06-04T08:38:43;2.53;;;2.00;;
63499;SDS011;49654;51.142;14.924;2023-06-04T08:41:12;5.70;;;2.00;;
63499;SDS011;49654;51.142;14.924;2023-06-04T08:43:41;4.00;;;2.00;;
63499;SDS011;49654;51.142;14.924;2023-06-04T08:46:10;4.22;;;1.90;;
63499;SDS011;49654;51.142;14.924;2023-06-04T08:48:39;6.35;;;1.95;;
63499;SDS011;49654;51.142;14.924;2023-06-04T08:51:07;4.35;;;2.35;;
63499;SDS011;49654;51.142;14.924;2023-06-04T08:53:35;2.67;;;1.95;;
63499;SDS011;49654;51.142;14.924;2023-06-04T08:56:03;2.35;;;1.63;;
63499;SDS011;49654;51.142;14.924;2023-06-04T08:58:31;17.70;;;2.22;;
63499;SDS011;49654;51.142;14.924;2023-06-04T09:00:58;6.07;;;1.63;;
63499;SDS011;49654;51.142;14.924;2023-06-04T09:03:26;2.17;;;1.60;;
63499;SDS011;49654;51.142;14.924;2023-06-04T09:05:56;1.95;;;1.40;;
63499;SDS011;49654;51.142;14.924;2023-06-04T09:08:24;2.85;;;1.52;;
63499;SDS011;49654;51.142;14.924;2023-06-04T09:10:53;4.45;;;1.52;;
63499;SDS011;49654;51.142;14.924;2023-06-04T09:13:22;1.65;;;1.42;;
63499;SDS011;49654;51.142;14.924;2023-06-04T09:15:58;6.07;;;1.70;;
63499;SDS011;49654;51.142;14.924;2023-06-04T09:18:26;2.88;;;1.40;;
63499;SDS011;49654;51.142;14.924;2023-06-04T09:21:01;3.03;;;1.65;;
63499;SDS011;49654;51.142;14.924;2023-06-04T09:23:29;5.45;;;1.70;;
63499;SDS011;49654;51.142;14.924;2023-06-04T09:26:05;3.60;;;1.77;;
63499;SDS011;49654;51.142;14.924;2023-06-04T09:28:32;3.47;;;1.20;;
63499;SDS011;49654;51.142;14.924;2023-06-04T09:30:59;3.90;;;1.80;;
63499;SDS011;49654;51.142;14.924;2023-06-04T09:33:27;3.17;;;1.60;;
63499;SDS011;49654;51.142;14.924;2023-06-04T09:35:55;2.72;;;1.65;;
63499;SDS011;49654;51.142;14.924;2023-06-04T09:38:23;4.28;;;1.60;;
63499;SDS011;49654;51.142;14.924;2023-06-04T09:40:59;3.22;;;1.75;;
63499;SDS011;49654;51.142;14.924;2023-06-04T09:43:30;2.67;;;1.52;;
63499;SDS011;49654;51.142;14.924;2023-06-04T09:46:07;2.58;;;1.45;;
63499;SDS011;49654;51.142;14.924;2023-06-04T09:48:38;6.15;;;1.80;;
63499;SDS011;49654;51.142;14.924;2023-06-04T09:51:06;12.38;;;2.58;;
63499;SDS011;49654;51.142;14.924;2023-06-04T09:53:35;22.58;;;2.53;;
63499;SDS011;49654;51.142;14.924;2023-06-04T09:56:02;4.10;;;1.70;;
63499;SDS011;49654;51.142;14.924;2023-06-04T09:58:30;2.92;;;1.83;;
63499;SDS011;49654;51.142;14.924;2023-06-04T10:00:58;1.75;;;1.48;;
63499;SDS011;49654;51.142;14.924;2023-06-04T10:03:27;3.63;;;1.58;;
63499;SDS011;49654;51.142;14.924;2023-06-04T10:05:58;2.28;;;1.40;;
63499;SDS011;49654;51.142;14.924;2023-06-04T10:08:27;3.08;;;1.50;;
63499;SDS011;49654;51.142;14.924;2023-06-04T10:10:58;1.67;;;1.50;;
63499;SDS011;49654;51.142;14.924;2023-06-04T10:13:27;2.40;;;1.30;;
63499;SDS011;49654;51.142;14.924;2023-06-04T10:15:56;3.97;;;1.65;;
63499;SDS011;49654;51.142;14.924;2023-06-04T10:18:26;11.07;;;2.10;;
63499;SDS011;49654;51.142;14.924;2023-06-04T10:20:54;2.30;;;1.50;;
63499;SDS011;49654;51.142;14.924;2023-06-04T10:23:22;3.47;;;2.05;;
63499;SDS011;49654;51.142;14.924;2023-06-04T10:25:49;1.65;;;1.55;;
63499;SDS011;49654;51.142;14.924;2023-06-04T10:28:19;2.20;;;1.50;;
63499;SDS011;49654;51.142;14.924;2023-06-04T10:30:46;1.90;;;1.65;;
63499;SDS011;49654;51.142;14.924;2023-06-04T10:33:16;2.00;;;1.42;;
63499;SDS011;49654;51.142;14.924;2023-06-04T10:35:45;3.25;;;1.50;;
63499;SDS011;49654;51.142;14.924;2023-06-04T10:38:13;3.08;;;1.73;;
63499;SDS011;49654;51.142;14.924;2023-06-04T10:40:42;3.63;;;1.60;;
63499;SDS011;49654;51.142;14.924;2023-06-04T10:43:09;2.05;;;1.50;;
63499;SDS011;49654;51.142;14.924;2023-06-04T10:45:39;3.03;;;1.52;;
63499;SDS011;49654;51.142;14.924;2023-06-04T10:48:07;3.78;;;1.40;;
63499;SDS011;49654;51.142;14.924;2023-06-04T10:50:46;2.92;;;1.52;;
63499;SDS011;49654;51.142;14.924;2023-06-04T10:53:15;3.63;;;1.42;;
63499;SDS011;49654;51.142;14.924;2023-06-04T10:55:43;10.43;;;1.77;;
63499;SDS011;49654;51.142;14.924;2023-06-04T10:58:10;2.20;;;1.60;;
63499;SDS011;49654;51.142;14.924;2023-06-04T11:00:39;5.43;;;1.55;;
63499;SDS011;49654;51.142;14.924;2023-06-04T11:03:07;3.15;;;1.40;;
63499;SDS011;49654;51.142;14.924;2023-06-04T11:05:36;1.80;;;1.35;;
63499;SDS011;49654;51.142;14.924;2023-06-04T11:08:05;4.10;;;1.88;;
63499;SDS011;49654;51.142;14.924;2023-06-04T11:10:33;1.58;;;1.38;;
63499;SDS011;49654;51.142;14.924;2023-06-04T11:13:01;10.85;;;1.95;;
63499;SDS011;49654;51.142;14.924;2023-06-04T11:15:36;2.33;;;1.45;;
63499;SDS011;49654;51.142;14.924;2023-06-04T11:18:05;3.55;;;1.33;;
63499;SDS011;49654;51.142;14.924;2023-06-04T11:20:32;2.33;;;1.20;;
63499;SDS011;49654;51.142;14.924;2023-06-04T11:22:59;2.28;;;1.40;;
63499;SDS011;49654;51.142;14.924;2023-06-04T11:25:28;3.05;;;1.42;;
63499;SDS011;49654;51.142;14.924;2023-06-04T11:27:58;3.92;;;1.50;;
63499;SDS011;49654;51.142;14.924;2023-06-04T11:30:27;2.60;;;1.25;;
63499;SDS011;49654;51.142;14.924;2023-06-04T11:33:02;4.80;;;1.35;;
63499;SDS011;49654;51.142;14.924;2023-06-04T11:35:31;1.98;;;1.30;;
63499;SDS011;49654;51.142;14.924;2023-06-04T11:38:05;2.63;;;1.50;;
63499;SDS011;49654;51.142;14.924;2023-06-04T11:40:32;2.85;;;1.30;;
63499;SDS011;49654;51.142;14.924;2023-06-04T11:42:59;3.70;;;1.33;;
63499;SDS011;49654;51.142;14.924;2023-06-04T11:45:26;1.92;;;1.42;;
63499;SDS011;49654;51.142;14.924;2023-06-04T11:47:56;1.88;;;1.48;;
63499;SDS011;49654;51.142;14.924;2023-06-04T11:50:26;4.18;;;1.60;;
63499;SDS011;49654;51.142;14.924;2023-06-04T11:52:54;1.70;;;1.50;;
63499;SDS011;49654;51.142;14.924;2023-06-04T11:55:21;2.38;;;1.50;;
63499;SDS011;49654;51.142;14.924;2023-06-04T11:57:49;2.55;;;1.38;;
63499;SDS011;49654;51.142;14.924;2023-06-04T12:00:16;3.20;;;1.52;;
63499;SDS011;49654;51.142;14.924;2023-06-04T12:02:48;3.28;;;1.45;;
63499;SDS011;49654;51.142;14.924;2023-06-04T12:05:17;6.35;;;1.35;;
63499;SDS011;49654;51.142;14.924;2023-06-04T12:07:46;2.40;;;1.48;;
63499;SDS011;49654;51.142;14.924;2023-06-04T12:10:16;2.15;;;1.30;;
63499;SDS011;49654;51.142;14.924;2023-06-04T12:12:43;1.70;;;1.42;;
63499;SDS011;49654;51.142;14.924;2023-06-04T12:15:10;4.72;;;1.50;;
63499;SDS011;49654;51.142;14.924;2023-06-04T12:17:37;3.10;;;1.30;;
63499;SDS011;49654;51.142;14.924;2023-06-04T12:20:15;3.55;;;1.50;;
63499;SDS011;49654;51.142;14.924;2023-06-04T12:22:47;3.22;;;1.52;;
63499;SDS011;49654;51.142;14.924;2023-06-04T12:25:23;1.75;;;1.42;;
63499;SDS011;49654;51.142;14.924;2023-06-04T12:27:51;1.75;;;1.20;;
63499;SDS011;49654;51.142;14.924;2023-06-04T12:30:18;2.53;;;1.30;;
63499;SDS011;49654;51.142;14.924;2023-06-04T12:32:45;1.67;;;1.40;;
63499;SDS011;49654;51.142;14.924;2023-06-04T12:35:12;2.35;;;1.40;;
63499;SDS011;49654;51.142;14.924;2023-06-04T12:37:39;3.75;;;1.40;;
63499;SDS011;49654;51.142;14.924;2023-06-04T12:40:08;4.20;;;1.48;;
63499;SDS011;49654;51.142;14.924;2023-06-04T12:42:36;1.90;;;1.23;;
63499;SDS011;49654;51.142;14.924;2023-06-04T12:45:03;2.70;;;1.45;;
63499;SDS011;49654;51.142;14.924;2023-06-04T12:47:31;1.95;;;1.45;;
63499;SDS011;49654;51.142;14.924;2023-06-04T12:49:58;2.20;;;1.40;;
63499;SDS011;49654;51.142;14.924;2023-06-04T12:52:26;1.40;;;1.30;;
63499;SDS011;49654;51.142;14.924;2023-06-04T12:54:53;2.83;;;1.30;;
63499;SDS011;49654;51.142;14.924;2023-06-04T12:57:21;2.65;;;1.40;;
63499;SDS011;49654;51.142;14.924;2023-06-04T12:59:48;2.33;;;1.27;;
63499;SDS011;49654;51.142;14.924;2023-06-04T13:02:15;2.65;;;1.30;;
63499;SDS011;49654;51.142;14.924;2023-06-04T13:04:42;1.30;;;1.20;;
63499;SDS011;49654;51.142;14.924;2023-06-04T13:07:10;2.38;;;1.55;;
63499;SDS011;49654;51.142;14.924;2023-06-04T13:09:37;2.50;;;1.30;;
63499;SDS011;49654;51.142;14.924;2023-06-04T13:12:04;2.92;;;1.30;;
63499;SDS011;49654;51.142;14.924;2023-06-04T13:14:32;1.83;;;1.52;;
63499;SDS011;49654;51.142;14.924;2023-06-04T13:17:00;1.98;;;1.40;;
63499;SDS011;49654;51.142;14.924;2023-06-04T13:19:27;1.70;;;1.27;;
63499;SDS011;49654;51.142;14.924;2023-06-04T13:21:54;1.67;;;1.40;;
63499;SDS011;49654;51.142;14.924;2023-06-04T13:24:22;2.80;;;1.30;;
63499;SDS011;49654;51.142;14.924;2023-06-04T13:26:49;2.15;;;1.38;;
63499;SDS011;49654;51.142;14.924;2023-06-04T13:29:16;3.08;;;1.30;;
63499;SDS011;49654;51.142;14.924;2023-06-04T13:31:49;3.80;;;1.40;;
63499;SDS011;49654;51.142;14.924;2023-06-04T13:34:18;2.38;;;1.30;;
63499;SDS011;49654;51.142;14.924;2023-06-04T13:36:45;1.63;;;1.10;;
63499;SDS011;49654;51.142;14.924;2023-06-04T13:39:12;1.52;;;1.20;;
63499;SDS011;49654;51.142;14.924;2023-06-04T13:41:38;2.88;;;1.40;;
63499;SDS011;49654;51.142;14.924;2023-06-04T13:44:05;1.67;;;1.58;;
63499;SDS011;49654;51.142;14.924;2023-06-04T13:46:32;1.55;;;1.25;;
63499;SDS011;49654;51.142;14.924;2023-06-04T13:49:01;4.15;;;1.60;;
63499;SDS011;49654;51.142;14.924;2023-06-04T13:51:27;1.75;;;1.40;;
63499;SDS011;49654;51.142;14.924;2023-06-04T13:53:55;1.85;;;1.48;;
63499;SDS011;49654;51.142;14.924;2023-06-04T13:56:22;2.05;;;1.30;;
63499;SDS011;49654;51.142;14.924;2023-06-04T13:58:49;1.50;;;1.35;;
63499;SDS011;49654;51.142;14.924;2023-06-04T14:01:16;2.05;;;1.50;;
63499;SDS011;49654;51.142;14.924;2023-06-04T14:03:43;1.92;;;1.45;;
63499;SDS011;49654;51.142;14.924;2023-06-04T14:06:12;1.30;;;1.20;;
63499;SDS011;49654;51.142;14.924;2023-06-04T14:08:39;1.50;;;1.20;;
63499;SDS011;49654;51.142;14.924;2023-06-04T14:11:05;2.50;;;1.40;;
63499;SDS011;49654;51.142;14.924;2023-06-04T14:13:32;1.65;;;1.20;;
63499;SDS011;49654;51.142;14.924;2023-06-04T14:15:59;3.65;;;1.30;;
63499;SDS011;49654;51.142;14.924;2023-06-04T14:18:26;4.60;;;2.20;;
63499;SDS011;49654;51.142;14.924;2023-06-04T14:20:53;2.53;;;1.30;;
63499;SDS011;49654;51.142;14.924;2023-06-04T14:23:21;2.92;;;1.50;;
63499;SDS011;49654;51.142;14.924;2023-06-04T14:25:48;3.88;;;1.50;;
63499;SDS011;49654;51.142;14.924;2023-06-04T14:28:15;2.13;;;1.13;;
63499;SDS011;49654;51.142;14.924;2023-06-04T14:30:43;4.50;;;1.60;;
63499;SDS011;49654;51.142;14.924;2023-06-04T14:33:10;1.90;;;1.10;;
63499;SDS011;49654;51.142;14.924;2023-06-04T14:35:37;1.67;;;1.30;;
63499;SDS011;49654;51.142;14.924;2023-06-04T14:38:04;1.23;;;1.13;;